Time,TemperatureF,DewpointF,PressureIn,WindDirection,WindDirectionDegrees,WindSpeedMPH,WindSpeedGustMPH,Humidity,HourlyPrecipIn,Conditions,Clouds,dailyrainin,SolarRadiationWatts/m^2,SoftwareType,DateUTC
2016-12-09 00:01:00,22.8,17.6,30.43,WNW,290,5.0,7.0,80,0.00,,,0.00,0.0,WeatherDisplay:WD_co,2016-12-09 06:01:00,
2016-12-09 00:06:00,22.8,17.5,30.43,WNW,287,5.0,8.0,80,0.00,,,0.00,0.0,WeatherDisplay:WD_co,2016-12-09 06:06:00,
2016-12-09 00:11:00,22.7,17.7,30.43,WNW,283,3.0,6.0,81,0.00,,,0.00,0.0,WeatherDisplay:WD_co,2016-12-09 06:11:00,
2016-12-09 00:16:00,22.6,17.7,30.43,WNW,284,5.0,9.0,81,0.00,,,0.00,0.0,WeatherDisplay:WD_co,2016-12-09 06:16:00,
2016-12-09 00:21:00,22.6,17.6,30.43,WNW,285,5.0,11.0,81,0.00,,,0.00,0.0,WeatherDisplay:WD_co,2016-12-09 06:21:00,
2016-12-09 00:26:00,22.5,17.5,30.43,WNW,284,5.0,11.0,81,0.00,,,0.00,0.0,WeatherDisplay:WD_co,2016-12-09 06:26:00,
2016-12-09 00:31:00,22.5,17.5,30.43,West,278,5.0,10.0,81,0.00,,,0.00,0.0,WeatherDisplay:WD_co,2016-12-09 06:31:00,
2016-12-09 00:36:00,22.4,17.7,30.43,West,279,6.0,9.0,82,0.00,,,0.00,0.0,WeatherDisplay:WD_co,2016-12-09 06:36:00,
2016-12-09 00:41:00,22.4,17.7,30.43,WNW,282,3.0,8.0,82,0.00,,,0.00,0.0,WeatherDisplay:WD_co,2016-12-09 06:41:00,
2016-12-09 00:46:00,22.3,17.6,30.43,WNW,282,3.0,6.0,82,0.00,,,0.00,0.0,WeatherDisplay:WD_co,2016-12-09 06:46:00,
2016-12-09 00:51:00,22.3,17.6,30.43,WNW,283,5.0,7.0,82,0.00,,,0.00,0.0,WeatherDisplay:WD_co,2016-12-09 06:51:00,
2016-12-09 00:56:00,22.2,17.5,30.43,WNW,285,5.0,7.0,82,0.00,,,0.00,0.0,WeatherDisplay:WD_co,2016-12-09 06:56:00,
2016-12-09 01:01:00,22.1,17.7,30.43,WNW,285,3.0,6.0,83,0.00,,,0.00,0.0,WeatherDisplay:WD_co,2016-12-09 07:01:00,
2016-12-09 01:11:00,22.0,17.6,30.44,WNW,289,3.0,6.0,83,0.00,,,0.00,0.0,WeatherDisplay:WD_co,2016-12-09 07:11:00,
2016-12-09 01:16:00,21.9,17.6,30.44,WNW,289,5.0,8.0,83,0.00,,,0.00,0.0,WeatherDisplay:WD_co,2016-12-09 07:16:00,
2016-12-09 01:21:00,21.9,17.5,30.44,WNW,284,5.0,10.0,83,0.00,,,0.00,0.0,WeatherDisplay:WD_co,2016-12-09 07:21:00,
2016-12-09 01:26:00,21.8,17.7,30.44,West,281,5.0,7.0,84,0.00,,,0.00,0.0,WeatherDisplay:WD_co,2016-12-09 07:26:00,
2016-12-09 01:31:00,21.8,17.7,30.44,WNW,282,3.0,6.0,84,0.00,,,0.00,0.0,WeatherDisplay:WD_co,2016-12-09 07:31:00,
2016-12-09 01:36:00,21.7,17.6,30.44,West,278,3.0,6.0,84,0.00,,,0.00,0.0,WeatherDisplay:WD_co,2016-12-09 07:36:00,
2016-12-09 01:41:00,21.6,17.5,30.44,West,280,3.0,6.0,84,0.00,,,0.00,0.0,WeatherDisplay:WD_co,2016-12-09 07:41:00,
2016-12-09 01:46:00,21.6,17.5,30.45,West,280,5.0,10.0,84,0.00,,,0.00,0.0,WeatherDisplay:WD_co,2016-12-09 07:46:00,
2016-12-09 01:51:00,21.5,17.4,30.45,West,281,3.0,5.0,84,0.00,,,0.00,0.0,WeatherDisplay:WD_co,2016-12-09 07:51:00,
2016-12-09 01:56:00,21.5,17.7,30.45,WNW,287,2.0,4.0,85,0.00,,,0.00,0.0,WeatherDisplay:WD_co,2016-12-09 07:56:00,
2016-12-09 02:01:00,21.4,17.6,30.45,WNW,285,3.0,5.0,85,0.00,,,0.00,0.0,WeatherDisplay:WD_co,2016-12-09 08:01:00,
2016-12-09 02:06:00,21.4,17.6,30.45,WNW,282,2.0,5.0,85,0.00,,,0.00,0.0,WeatherDisplay:WD_co,2016-12-09 08:06:00,
2016-12-09 02:11:00,21.4,17.5,30.46,West,281,3.0,6.0,85,0.00,,,0.00,0.0,WeatherDisplay:WD_co,2016-12-09 08:11:00,
2016-12-09 02:21:00,21.4,17.6,30.46,West,280,3.0,7.0,85,0.00,,,0.00,0.0,WeatherDisplay:WD_co,2016-12-09 08:21:00,
2016-12-09 02:26:00,21.3,17.5,30.46,West,281,2.0,4.0,85,0.00,,,0.00,0.0,WeatherDisplay:WD_co,2016-12-09 08:26:00,
2016-12-09 02:31:00,21.3,17.5,30.46,WNW,283,3.0,5.0,85,0.00,,,0.00,0.0,WeatherDisplay:WD_co,2016-12-09 08:31:00,
2016-12-09 02:36:00,21.3,17.5,30.46,WNW,283,2.0,4.0,85,0.00,,,0.00,0.0,WeatherDisplay:WD_co,2016-12-09 08:36:00,
2016-12-09 02:41:00,21.3,17.8,30.46,WNW,285,2.0,4.0,86,0.00,,,0.00,0.0,WeatherDisplay:WD_co,2016-12-09 08:41:00,
2016-12-09 02:46:00,21.2,17.7,30.46,WNW,283,2.0,6.0,86,0.00,,,0.00,0.0,WeatherDisplay:WD_co,2016-12-09 08:46:00,
2016-12-09 02:51:00,21.2,17.7,30.46,WNW,286,2.0,5.0,86,0.00,,,0.00,0.0,WeatherDisplay:WD_co,2016-12-09 08:51:00,
2016-12-09 02:56:00,21.2,17.7,30.46,WNW,289,2.0,5.0,86,0.00,,,0.00,0.0,WeatherDisplay:WD_co,2016-12-09 08:56:00,
2016-12-09 03:01:00,21.3,17.7,30.47,WNW,287,2.0,4.0,86,0.00,,,0.00,0.0,WeatherDisplay:WD_co,2016-12-09 09:01:00,
2016-12-09 03:06:00,21.3,17.7,30.47,WNW,287,2.0,4.0,86,0.00,,,0.00,0.0,WeatherDisplay:WD_co,2016-12-09 09:06:00,
2016-12-09 03:11:00,21.2,17.7,30.47,WNW,282,1.0,3.0,86,0.00,,,0.00,0.0,WeatherDisplay:WD_co,2016-12-09 09:11:00,
2016-12-09 03:16:00,21.3,17.8,30.47,WNW,284,2.0,5.0,86,0.00,,,0.00,0.0,WeatherDisplay:WD_co,2016-12-09 09:16:00,
2016-12-09 03:21:00,21.3,17.8,30.46,WNW,291,2.0,5.0,86,0.00,,,0.00,0.0,WeatherDisplay:WD_co,2016-12-09 09:21:00,
2016-12-09 03:26:00,21.5,17.9,30.46,WNW,294,3.0,5.0,86,0.00,,,0.00,0.0,WeatherDisplay:WD_co,2016-12-09 09:26:00,
2016-12-09 03:31:00,21.5,18.0,30.46,WNW,297,3.0,5.0,86,0.00,,,0.00,0.0,WeatherDisplay:WD_co,2016-12-09 09:31:00,
2016-12-09 03:36:00,21.6,18.1,30.47,WNW,299,3.0,5.0,86,0.00,,,0.00,0.0,WeatherDisplay:WD_co,2016-12-09 09:36:00,
2016-12-09 03:41:00,21.8,18.2,30.47,WNW,292,2.0,6.0,86,0.00,,,0.00,0.0,WeatherDisplay:WD_co,2016-12-09 09:41:00,
2016-12-09 03:46:00,21.8,18.0,30.47,WNW,289,3.0,5.0,85,0.00,,,0.00,0.0,WeatherDisplay:WD_co,2016-12-09 09:46:00,
2016-12-09 03:51:00,21.9,18.1,30.47,WNW,289,3.0,5.0,85,0.00,,,0.00,0.0,WeatherDisplay:WD_co,2016-12-09 09:51:00,
2016-12-09 03:56:00,22.0,18.2,30.47,WNW,292,3.0,9.0,85,0.00,,,0.00,0.0,WeatherDisplay:WD_co,2016-12-09 09:56:00,
2016-12-09 04:01:00,22.0,18.2,30.48,WNW,293,2.0,4.0,85,0.00,,,0.00,0.0,WeatherDisplay:WD_co,2016-12-09 10:01:00,
2016-12-09 04:06:00,22.0,18.2,30.48,WNW,293,2.0,6.0,85,0.00,,,0.00,0.0,WeatherDisplay:WD_co,2016-12-09 10:06:00,
2016-12-09 04:11:00,22.1,18.3,30.48,WNW,289,3.0,7.0,85,0.00,,,0.00,0.0,WeatherDisplay:WD_co,2016-12-09 10:11:00,
2016-12-09 04:16:00,22.1,18.3,30.48,WNW,291,2.0,5.0,85,0.00,,,0.00,0.0,WeatherDisplay:WD_co,2016-12-09 10:16:00,
2016-12-09 04:21:00,22.1,18.0,30.48,WNW,296,2.0,6.0,84,0.00,,,0.00,0.0,WeatherDisplay:WD_co,2016-12-09 10:21:00,
2016-12-09 04:26:00,22.0,17.9,30.48,WNW,296,2.0,6.0,84,0.00,,,0.00,0.0,WeatherDisplay:WD_co,2016-12-09 10:26:00,
2016-12-09 04:31:00,22.0,17.9,30.48,WNW,294,2.0,5.0,84,0.00,,,0.00,0.0,WeatherDisplay:WD_co,2016-12-09 10:31:00,
2016-12-09 04:36:00,22.0,17.9,30.48,WNW,295,2.0,4.0,84,0.00,,,0.00,0.0,WeatherDisplay:WD_co,2016-12-09 10:36:00,
2016-12-09 04:41:00,21.9,18.1,30.48,WNW,295,2.0,6.0,85,0.00,,,0.00,0.0,WeatherDisplay:WD_co,2016-12-09 10:41:00,
2016-12-09 04:46:00,21.8,18.0,30.48,WNW,291,2.0,5.0,85,0.00,,,0.00,0.0,WeatherDisplay:WD_co,2016-12-09 10:46:00,
2016-12-09 04:51:00,21.7,17.9,30.48,WNW,289,2.0,9.0,85,0.00,,,0.00,0.0,WeatherDisplay:WD_co,2016-12-09 10:51:00,
2016-12-09 04:56:00,21.7,17.9,30.49,WNW,286,1.0,3.0,85,0.00,,,0.00,0.0,WeatherDisplay:WD_co,2016-12-09 10:56:00,
2016-12-09 05:01:00,21.6,17.8,30.49,WNW,288,2.0,4.0,85,0.00,,,0.00,0.0,WeatherDisplay:WD_co,2016-12-09 11:01:00,
2016-12-09 05:06:00,21.6,17.8,30.49,WNW,291,2.0,5.0,85,0.00,,,0.00,0.0,WeatherDisplay:WD_co,2016-12-09 11:06:00,
2016-12-09 05:11:00,21.6,17.8,30.49,WNW,292,2.0,4.0,85,0.00,,,0.00,0.0,WeatherDisplay:WD_co,2016-12-09 11:11:00,
2016-12-09 05:16:00,21.6,17.8,30.49,WNW,295,2.0,5.0,85,0.00,,,0.00,0.0,WeatherDisplay:WD_co,2016-12-09 11:16:00,
2016-12-09 05:26:00,21.4,17.6,30.49,WNW,294,2.0,5.0,85,0.00,,,0.00,0.0,WeatherDisplay:WD_co,2016-12-09 11:26:00,
2016-12-09 05:31:00,21.3,17.5,30.49,WNW,295,2.0,4.0,85,0.00,,,0.00,0.0,WeatherDisplay:WD_co,2016-12-09 11:31:00,
2016-12-09 05:36:00,21.2,17.4,30.49,WNW,293,3.0,4.0,85,0.00,,,0.00,0.0,WeatherDisplay:WD_co,2016-12-09 11:36:00,
2016-12-09 05:46:00,21.1,17.3,30.49,WNW,289,1.0,4.0,85,0.00,,,0.00,0.0,WeatherDisplay:WD_co,2016-12-09 11:46:00,
2016-12-09 05:56:00,21.2,17.4,30.49,WNW,296,2.0,4.0,85,0.00,,,0.00,0.0,WeatherDisplay:WD_co,2016-12-09 11:56:00,
2016-12-09 06:01:00,21.3,17.5,30.50,WNW,297,2.0,5.0,85,0.00,,,0.00,0.0,WeatherDisplay:WD_co,2016-12-09 12:01:00,
2016-12-09 06:06:00,21.3,17.5,30.50,WNW,296,1.0,4.0,85,0.00,,,0.00,0.0,WeatherDisplay:WD_co,2016-12-09 12:06:00,
2016-12-09 06:11:00,21.4,17.6,30.50,WNW,291,2.0,4.0,85,0.00,,,0.00,0.0,WeatherDisplay:WD_co,2016-12-09 12:11:00,
2016-12-09 06:16:00,21.5,17.6,30.50,WNW,287,1.0,4.0,85,0.00,,,0.00,0.0,WeatherDisplay:WD_co,2016-12-09 12:16:00,
2016-12-09 06:21:00,21.5,17.7,30.51,WNW,288,1.0,3.0,85,0.00,,,0.00,0.0,WeatherDisplay:WD_co,2016-12-09 12:21:00,
2016-12-09 06:26:00,21.6,17.8,30.51,WNW,290,1.0,6.0,85,0.00,,,0.00,0.0,WeatherDisplay:WD_co,2016-12-09 12:26:00,
2016-12-09 06:31:00,21.6,17.8,30.51,WNW,297,3.0,7.0,85,0.00,,,0.00,0.0,WeatherDisplay:WD_co,2016-12-09 12:31:00,
2016-12-09 06:36:00,21.7,17.9,30.51,WNW,298,5.0,7.0,85,0.00,,,0.00,0.0,WeatherDisplay:WD_co,2016-12-09 12:36:00,
2016-12-09 06:41:00,21.8,17.7,30.51,WNW,300,2.0,5.0,84,0.00,,,0.00,0.0,WeatherDisplay:WD_co,2016-12-09 12:41:00,
2016-12-09 06:46:00,21.7,17.6,30.51,WNW,295,2.0,5.0,84,0.00,,,0.00,0.0,WeatherDisplay:WD_co,2016-12-09 12:46:00,
2016-12-09 06:56:00,21.6,17.2,30.52,WNW,287,2.0,4.0,83,0.00,,,0.00,0.0,WeatherDisplay:WD_co,2016-12-09 12:56:00,
2016-12-09 07:01:00,21.5,17.1,30.52,WNW,286,1.0,5.0,83,0.00,,,0.00,0.0,WeatherDisplay:WD_co,2016-12-09 13:01:00,
2016-12-09 07:06:00,21.4,17.0,30.52,WNW,286,2.0,3.0,83,0.00,,,0.00,0.0,WeatherDisplay:WD_co,2016-12-09 13:06:00,
2016-12-09 07:11:00,21.3,17.2,30.52,WNW,292,1.0,3.0,84,0.00,,,0.00,0.0,WeatherDisplay:WD_co,2016-12-09 13:11:00,
2016-12-09 07:16:00,21.2,17.2,30.52,WNW,293,1.0,3.0,84,0.00,,,0.00,0.0,WeatherDisplay:WD_co,2016-12-09 13:16:00,
2016-12-09 07:21:00,21.1,17.1,30.52,WNW,283,1.0,3.0,84,0.00,,,0.00,0.0,WeatherDisplay:WD_co,2016-12-09 13:21:00,
2016-12-09 07:26:00,21.1,17.0,30.52,WNW,282,1.0,3.0,84,0.00,,,0.00,0.0,WeatherDisplay:WD_co,2016-12-09 13:26:00,
2016-12-09 07:36:00,21.1,17.0,30.52,WNW,285,1.0,4.0,84,0.00,,,0.00,0.0,WeatherDisplay:WD_co,2016-12-09 13:36:00,
2016-12-09 07:41:00,21.2,17.1,30.53,West,281,2.0,4.0,84,0.00,,,0.00,0.0,WeatherDisplay:WD_co,2016-12-09 13:41:00,
2016-12-09 07:46:00,21.3,17.2,30.53,WNW,288,2.0,5.0,84,0.00,,,0.00,0.0,WeatherDisplay:WD_co,2016-12-09 13:46:00,
2016-12-09 07:56:00,21.6,17.2,30.53,WNW,290,2.0,6.0,83,0.00,,,0.00,0.0,WeatherDisplay:WD_co,2016-12-09 13:56:00,
2016-12-09 08:01:00,21.7,17.1,30.53,WNW,296,2.0,5.0,82,0.00,,,0.00,0.0,WeatherDisplay:WD_co,2016-12-09 14:01:00,
2016-12-09 08:06:00,21.9,17.2,30.53,WNW,293,3.0,5.0,82,0.00,,,0.00,0.0,WeatherDisplay:WD_co,2016-12-09 14:06:00,
2016-12-09 08:11:00,22.1,17.2,30.53,WNW,288,2.0,5.0,81,0.00,,,0.00,0.0,WeatherDisplay:WD_co,2016-12-09 14:11:00,
2016-12-09 08:16:00,22.3,17.4,30.53,WNW,290,2.0,6.0,81,0.00,,,0.00,0.0,WeatherDisplay:WD_co,2016-12-09 14:16:00,
2016-12-09 08:21:00,22.5,17.3,30.53,WNW,290,5.0,6.0,80,0.00,,,0.00,0.0,WeatherDisplay:WD_co,2016-12-09 14:21:00,
2016-12-09 08:26:00,22.6,17.1,30.53,WNW,287,5.0,6.0,79,0.00,,,0.00,0.0,WeatherDisplay:WD_co,2016-12-09 14:26:00,
2016-12-09 08:31:00,22.7,16.9,30.53,WNW,292,5.0,9.0,78,0.00,,,0.00,0.0,WeatherDisplay:WD_co,2016-12-09 14:31:00,
2016-12-09 08:36:00,22.8,16.7,30.53,WNW,297,5.0,8.0,77,0.00,,,0.00,0.0,WeatherDisplay:WD_co,2016-12-09 14:36:00,
2016-12-09 08:41:00,22.9,16.5,30.53,WNW,296,3.0,6.0,76,0.00,,,0.00,0.0,WeatherDisplay:WD_co,2016-12-09 14:41:00,
2016-12-09 08:46:00,23.1,16.7,30.54,WNW,295,5.0,8.0,76,0.00,,,0.00,0.0,WeatherDisplay:WD_co,2016-12-09 14:46:00,
2016-12-09 08:51:00,23.1,16.0,30.54,WNW,302,6.0,10.0,74,0.00,,,0.00,0.0,WeatherDisplay:WD_co,2016-12-09 14:51:00,
2016-12-09 08:56:00,23.2,16.1,30.54,NW,305,5.0,11.0,74,0.00,,,0.00,0.0,WeatherDisplay:WD_co,2016-12-09 14:56:00,
2016-12-09 09:01:00,23.2,15.8,30.55,NW,305,7.0,11.0,73,0.00,,,0.00,0.0,WeatherDisplay:WD_co,2016-12-09 15:01:00,
2016-12-09 09:11:00,23.6,16.2,30.55,WNW,297,5.0,11.0,73,0.00,,,0.00,0.0,WeatherDisplay:WD_co,2016-12-09 15:11:00,
2016-12-09 09:16:00,23.6,15.9,30.55,WNW,287,5.0,11.0,72,0.00,,,0.00,0.0,WeatherDisplay:WD_co,2016-12-09 15:16:00,
2016-12-09 09:21:00,23.7,15.7,30.55,WNW,291,6.0,11.0,71,0.00,,,0.00,0.0,WeatherDisplay:WD_co,2016-12-09 15:21:00,
2016-12-09 09:31:00,23.8,15.8,30.56,WNW,302,6.0,10.0,71,0.00,,,0.00,0.0,WeatherDisplay:WD_co,2016-12-09 15:31:00,
2016-12-09 09:36:00,24.2,16.1,30.56,WNW,297,3.0,9.0,71,0.00,,,0.00,0.0,WeatherDisplay:WD_co,2016-12-09 15:36:00,
2016-12-09 09:41:00,24.3,15.3,30.56,WNW,294,5.0,9.0,68,0.00,,,0.00,0.0,WeatherDisplay:WD_co,2016-12-09 15:41:00,
2016-12-09 09:46:00,24.4,15.4,30.56,WNW,302,6.0,10.0,68,0.00,,,0.00,0.0,WeatherDisplay:WD_co,2016-12-09 15:46:00,
2016-12-09 09:51:00,24.7,15.3,30.56,WNW,298,3.0,8.0,67,0.00,,,0.00,0.0,WeatherDisplay:WD_co,2016-12-09 15:51:00,
2016-12-09 09:56:00,24.7,14.9,30.56,WNW,286,6.0,11.0,66,0.00,,,0.00,0.0,WeatherDisplay:WD_co,2016-12-09 15:56:00,
2016-12-09 10:01:00,24.4,14.6,30.57,West,281,5.0,8.0,66,0.00,,,0.00,0.0,WeatherDisplay:WD_co,2016-12-09 16:01:00,
2016-12-09 10:06:00,24.3,14.5,30.56,WNW,282,6.0,11.0,66,0.00,,,0.00,0.0,WeatherDisplay:WD_co,2016-12-09 16:06:00,
2016-12-09 10:11:00,24.3,14.6,30.56,WNW,293,2.0,8.0,66,0.00,,,0.00,0.0,WeatherDisplay:WD_co,2016-12-09 16:11:00,
2016-12-09 10:16:00,24.3,14.2,30.56,WNW,302,3.0,7.0,65,0.00,,,0.00,0.0,WeatherDisplay:WD_co,2016-12-09 16:16:00,
2016-12-09 10:21:00,24.6,14.8,30.56,WNW,297,3.0,9.0,66,0.00,,,0.00,0.0,WeatherDisplay:WD_co,2016-12-09 16:21:00,
2016-12-09 10:26:00,24.6,13.8,30.55,WNW,299,6.0,8.0,63,0.00,,,0.00,0.0,WeatherDisplay:WD_co,2016-12-09 16:26:00,
2016-12-09 10:31:00,24.4,14.0,30.55,WNW,303,5.0,9.0,64,0.00,,,0.00,0.0,WeatherDisplay:WD_co,2016-12-09 16:31:00,
2016-12-09 10:36:00,24.4,13.6,30.55,NW,309,2.0,7.0,63,0.00,,,0.00,0.0,WeatherDisplay:WD_co,2016-12-09 16:36:00,
2016-12-09 10:41:00,24.5,13.7,30.55,WNW,301,5.0,9.0,63,0.00,,,0.00,0.0,WeatherDisplay:WD_co,2016-12-09 16:41:00,
2016-12-09 10:46:00,24.6,13.8,30.55,WNW,296,3.0,8.0,63,0.00,,,0.00,0.0,WeatherDisplay:WD_co,2016-12-09 16:46:00,
2016-12-09 10:51:00,24.6,13.8,30.55,WNW,289,5.0,8.0,63,0.00,,,0.00,0.0,WeatherDisplay:WD_co,2016-12-09 16:51:00,
2016-12-09 10:56:00,25.3,14.5,30.55,West,281,5.0,12.0,63,0.00,,,0.00,0.0,WeatherDisplay:WD_co,2016-12-09 16:56:00,
2016-12-09 11:01:00,25.3,13.7,30.55,West,275,6.0,10.0,61,0.00,,,0.00,0.0,WeatherDisplay:WD_co,2016-12-09 17:01:00,
2016-12-09 11:06:00,25.1,13.5,30.55,West,274,6.0,10.0,61,0.00,,,0.00,0.0,WeatherDisplay:WD_co,2016-12-09 17:06:00,
2016-12-09 11:11:00,24.8,13.3,30.55,West,281,5.0,7.0,61,0.00,,,0.00,0.0,WeatherDisplay:WD_co,2016-12-09 17:11:00,
2016-12-09 11:16:00,24.7,13.1,30.54,WNW,289,5.0,11.0,61,0.00,,,0.00,0.0,WeatherDisplay:WD_co,2016-12-09 17:16:00,
2016-12-09 11:21:00,24.6,13.1,30.54,WNW,302,5.0,9.0,61,0.00,,,0.00,0.0,WeatherDisplay:WD_co,2016-12-09 17:21:00,
2016-12-09 11:26:00,24.4,13.2,30.54,NW,309,3.0,8.0,62,0.00,,,0.00,0.0,WeatherDisplay:WD_co,2016-12-09 17:26:00,
2016-12-09 11:36:00,24.4,13.6,30.54,WNW,298,3.0,6.0,63,0.00,,,0.00,0.0,WeatherDisplay:WD_co,2016-12-09 17:36:00,
2016-12-09 11:41:00,24.4,13.9,30.54,WNW,296,3.0,7.0,64,0.00,,,0.00,0.0,WeatherDisplay:WD_co,2016-12-09 17:41:00,
2016-12-09 11:46:00,24.3,14.2,30.53,WNW,295,2.0,4.0,65,0.00,,,0.00,0.0,WeatherDisplay:WD_co,2016-12-09 17:46:00,
2016-12-09 11:51:00,24.2,13.8,30.53,WNW,294,3.0,6.0,64,0.00,,,0.00,0.0,WeatherDisplay:WD_co,2016-12-09 17:51:00,
2016-12-09 11:56:00,24.1,14.1,30.53,WNW,290,3.0,7.0,65,0.00,,,0.00,0.0,WeatherDisplay:WD_co,2016-12-09 17:56:00,
2016-12-09 12:01:00,24.1,14.0,30.53,WNW,291,3.0,7.0,65,0.00,,,0.00,0.0,WeatherDisplay:WD_co,2016-12-09 18:01:00,
2016-12-09 12:06:00,24.2,14.2,30.53,WNW,293,3.0,8.0,65,0.00,,,0.00,0.0,WeatherDisplay:WD_co,2016-12-09 18:06:00,
2016-12-09 12:11:00,24.7,14.6,30.53,WNW,282,3.0,9.0,65,0.00,,,0.00,0.0,WeatherDisplay:WD_co,2016-12-09 18:11:00,
2016-12-09 12:16:00,25.1,13.9,30.53,West,280,5.0,10.0,62,0.00,,,0.00,0.0,WeatherDisplay:WD_co,2016-12-09 18:16:00,
2016-12-09 12:21:00,25.0,13.4,30.53,West,278,6.0,10.0,61,0.00,,,0.00,0.0,WeatherDisplay:WD_co,2016-12-09 18:21:00,